Time;durP1;ratioP1;P1;durP2;ratioP2;P2;SDS_P1;SDS_P2;PMS_P1;PMS_P2;Temp;Humidity;BMP_temperature;BMP_pressure;BME280_temperature;BME280_humidity;BME280_pressure;Samples;Min_cycle;Max_cycle;Signal;HPM_P1;HPM_P2
2022/06/12 00:02:00;;;;;;;4.07;3.15;;;;;;;20.78;58.78;100087.78;4484839;32;34905;-86
2022/06/12 00:04:28;;;;;;;4.35;2.75;;;;;;;20.95;58.30;100085.19;4484414;32;33921;-71
2022/06/12 00:06:55;;;;;;;4.65;2.87;;;;;;;20.76;58.80;100084.53;4485476;32;33588;-74
2022/06/12 00:09:23;;;;;;;4.68;3.08;;;;;;;20.98;58.35;100081.81;4485135;32;34008;-73
2022/06/12 00:11:50;;;;;;;5.35;3.12;;;;;;;20.81;58.84;100081.63;4483962;32;34017;-72
2022/06/12 00:14:19;;;;;;;6.20;3.30;;;;;;;20.83;58.61;100073.88;4484109;32;34516;-89
2022/06/12 00:16:46;;;;;;;3.22;2.83;;;;;;;21.12;57.86;100083.72;4484926;32;34233;-72
2022/06/12 00:19:14;;;;;;;3.87;3.03;;;;;;;21.29;57.23;100076.41;4484965;32;34551;-74
2022/06/12 00:21:42;;;;;;;3.87;2.92;;;;;;;21.08;57.65;100070.53;4485238;32;34010;-72
2022/06/12 00:24:13;;;;;;;4.80;3.65;;;;;;;20.76;58.82;100074.31;4484906;32;33974;-73
2022/06/12 00:26:44;;;;;;;4.47;3.30;;;;;;;20.53;59.70;100073.38;4485001;32;33222;-71
2022/06/12 00:29:14;;;;;;;5.43;3.25;;;;;;;20.84;58.76;100067.22;4485222;32;34799;-73
2022/06/12 00:31:45;;;;;;;4.30;3.42;;;;;;;21.01;58.64;100064.63;4483695;32;35041;-72
2022/06/12 00:34:15;;;;;;;5.43;3.50;;;;;;;20.73;59.55;100060.31;4484931;32;34406;-71
2022/06/12 00:36:42;;;;;;;4.25;3.28;;;;;;;21.09;57.93;100055.62;4484841;32;33483;-76
2022/06/12 00:39:11;;;;;;;3.85;3.10;;;;;;;20.96;58.43;100063.94;4484759;32;33857;-73
2022/06/12 00:41:40;;;;;;;4.43;3.37;;;;;;;20.65;59.24;100062.69;4485026;32;34376;-72
2022/06/12 00:44:12;;;;;;;4.55;3.37;;;;;;;20.95;58.29;100054.84;4470814;32;34551;-74
2022/06/12 00:46:48;;;;;;;4.30;3.28;;;;;;;20.78;58.24;100062.97;4483237;32;33567;-74
2022/06/12 00:49:35;;;;;;;4.95;3.65;;;;;;;20.43;59.74;100057.87;4483690;32;34700;-73
2022/06/12 00:52:09;;;;;;;3.62;3.28;;;;;;;20.07;61.20;100061.31;4483236;32;34317;-80
2022/06/12 00:54:38;;;;;;;4.97;3.00;;;;;;;19.85;61.75;100062.00;4483580;32;34771;-72
2022/06/12 00:57:07;;;;;;;4.12;3.35;;;;;;;20.26;60.62;100064.00;4484911;32;33414;-73
2022/06/12 00:59:38;;;;;;;4.12;3.17;;;;;;;19.36;63.57;100068.06;4484753;32;35022;-74
2022/06/12 01:02:10;;;;;;;4.35;3.45;;;;;;;20.38;60.39;100066.22;4484338;32;34213;-74
2022/06/12 01:07:30;;;;;;;3.72;2.95;;;;;;;20.19;60.19;100060.00;4484479;32;33249;-74
2022/06/12 01:10:01;;;;;;;5.28;3.20;;;;;;;19.94;60.75;100053.06;4484554;32;34811;-72
2022/06/12 01:12:33;;;;;;;5.00;3.37;;;;;;;20.37;59.41;100056.34;4484466;32;33588;-73
2022/06/12 01:15:18;;;;;;;4.12;3.33;;;;;;;19.78;61.02;100042.28;4484726;32;34023;-72
2022/06/12 01:17:46;;;;;;;4.10;3.22;;;;;;;19.59;61.41;100049.78;4484725;32;33495;-73
2022/06/12 01:20:20;;;;;;;4.75;3.35;;;;;;;19.65;61.60;100045.81;4482988;32;34941;-72
2022/06/12 01:23:29;;;;;;;4.85;3.35;;;;;;;19.66;61.44;100044.72;4484165;32;33965;-73
2022/06/12 01:26:06;;;;;;;3.97;3.10;;;;;;;19.16;63.47;100056.25;4483159;32;34531;-71
2022/06/12 01:28:36;;;;;;;4.50;3.50;;;;;;;19.89;61.85;100045.69;4484435;32;33589;-86
2022/06/12 01:31:12;;;;;;;4.90;3.42;;;;;;;18.94;64.51;100045.88;4484019;32;33776;-85
2022/06/12 01:33:56;;;;;;;3.92;3.20;;;;;;;19.69;62.56;100046.84;4484551;32;34309;-72
2022/06/12 01:36:23;;;;;;;3.78;2.85;;;;;;;18.86;64.68;100052.03;4483227;32;33920;-72
2022/06/12 01:39:02;;;;;;;3.97;3.17;;;;;;;19.59;62.45;100052.53;4484150;32;33212;-83
2022/06/12 01:41:32;;;;;;;3.95;2.85;;;;;;;19.68;61.92;100050.72;4482746;32;33843;-71
2022/06/12 01:44:19;;;;;;;5.07;3.05;;;;;;;19.76;61.29;100055.59;4483023;32;34354;-72
2022/06/12 01:46:58;;;;;;;3.95;3.30;;;;;;;19.98;60.38;100046.63;4483722;32;33769;-72
2022/06/12 01:49:43;;;;;;;4.75;3.33;;;;;;;20.08;60.38;100051.94;4482722;32;33495;-72
2022/06/12 01:52:22;;;;;;;3.87;2.90;;;;;;;20.37;58.60;100036.25;4469165;32;33739;-71
2022/06/12 01:55:06;;;;;;;4.03;3.05;;;;;;;20.55;57.50;100046.31;4467082;32;34206;-73
2022/06/12 01:58:06;;;;;;;4.07;3.00;;;;;;;20.37;57.59;100044.50;4476690;32;34741;-72
2022/06/12 02:00:36;;;;;;;3.53;2.95;;;;;;;20.21;57.51;100052.25;4449369;31;34235;-73
2022/06/12 02:03:30;;;;;;;4.15;2.83;;;;;;;20.44;57.15;100042.16;4485011;32;34697;-82
2022/06/12 02:06:19;;;;;;;5.70;2.80;;;;;;;20.15;57.38;100045.19;4484990;32;34030;-74
2022/06/12 02:09:22;;;;;;;3.62;2.50;;;;;;;20.19;57.83;100043.47;4484857;32;34299;-78
2022/06/12 02:14:57;;;;;;;4.40;3.03;;;;;;;19.93;57.79;100041.19;4484680;32;34783;-71
2022/06/12 02:17:31;;;;;;;3.33;2.62;;;;;;;20.37;57.21;100047.25;4485129;32;34057;-74
2022/06/12 02:19:59;;;;;;;3.10;2.50;;;;;;;20.52;55.73;100040.59;4484312;32;33862;-85
2022/06/12 02:22:28;;;;;;;4.32;2.75;;;;;;;20.60;54.38;100031.62;4484943;32;33482;-74
2022/06/12 02:25:04;;;;;;;4.07;3.00;;;;;;;20.17;55.54;100040.19;4486480;32;34798;-73
2022/06/12 02:28:03;;;;;;;6.05;2.55;;;;;;;20.47;54.62;100036.00;4484888;32;35132;-72
2022/06/12 02:30:34;;;;;;;3.42;2.65;;;;;;;20.44;54.30;100040.19;4484606;32;33199;-73
2022/06/12 02:33:14;;;;;;;3.70;2.67;;;;;;;20.32;54.51;100039.09;4484925;32;33599;-86
2022/06/12 02:35:44;;;;;;;3.75;2.75;;;;;;;20.48;54.10;100038.47;4485238;32;34046;-73
2022/06/12 02:38:16;;;;;;;5.35;2.67;;;;;;;20.22;54.82;100048.38;4484874;32;34047;-73
2022/06/12 02:40:47;;;;;;;4.25;2.72;;;;;;;20.52;55.11;100051.63;4484817;32;33908;-74
2022/06/12 02:43:18;;;;;;;3.60;2.60;;;;;;;20.38;54.66;100046.94;4486128;32;33454;-73
2022/06/12 02:45:53;;;;;;;3.37;2.75;;;;;;;20.63;54.49;100047.56;4484869;32;34556;-73
2022/06/12 02:48:21;;;;;;;4.03;2.50;;;;;;;20.31;55.42;100043.78;4484812;32;35008;-76
2022/06/12 02:51:19;;;;;;;4.35;2.95;;;;;;;20.50;54.95;100043.69;4484127;32;33891;-73
2022/06/12 02:54:08;;;;;;;3.85;2.90;;;;;;;20.13;56.12;100048.28;4485890;32;33496;-73
2022/06/12 02:56:58;;;;;;;2.95;2.50;;;;;;;20.42;55.38;100053.47;4484762;32;34931;-75
2022/06/12 02:59:57;;;;;;;3.62;2.80;;;;;;;20.61;54.74;100055.34;4484608;32;35430;-72
2022/06/12 03:02:38;;;;;;;5.90;3.10;;;;;;;20.62;55.04;100051.44;4485671;32;34425;-73
2022/06/12 03:05:26;;;;;;;4.43;2.75;;;;;;;20.29;55.87;100052.34;4484546;32;34165;-73
2022/06/12 03:08:03;;;;;;;3.12;2.70;;;;;;;20.22;56.46;100049.19;4484696;32;33855;-75
2022/06/12 03:10:35;;;;;;;4.05;3.00;;;;;;;19.90;57.62;100054.78;4484753;32;33968;-74
2022/06/12 03:13:05;;;;;;;4.93;2.72;;;;;;;20.25;56.44;100054.09;4484570;32;34083;-74
2022/06/12 03:15:38;;;;;;;3.58;2.67;;;;;;;20.40;56.05;100057.66;4484726;32;34201;-74
2022/06/12 03:18:10;;;;;;;5.18;2.80;;;;;;;20.24;56.22;100054.41;4485470;32;34876;-73
2022/06/12 03:20:56;;;;;;;4.65;2.90;;;;;;;19.99;56.89;100061.22;4484586;32;35083;-72
2022/06/12 03:23:28;;;;;;;3.78;2.72;;;;;;;20.22;56.44;100068.47;4485733;32;33923;-73
2022/06/12 03:25:56;;;;;;;4.30;2.42;;;;;;;19.23;57.82;100066.88;4484576;32;33420;-71
2022/06/12 03:28:51;;;;;;;4.40;3.15;;;;;;;20.25;56.42;100065.09;4485845;32;34099;-72
2022/06/12 03:31:20;;;;;;;;;;;;;;;20.33;56.95;100066.34;4484903;32;33721;-74
2022/06/12 03:33:57;;;;;;;3.60;2.80;;;;;;;20.79;54.97;100070.91;4484375;32;34599;-74
2022/06/12 03:36:48;;;;;;;3.97;2.78;;;;;;;20.84;54.25;100067.22;4484501;32;33445;-75
2022/06/12 03:39:25;;;;;;;3.53;2.75;;;;;;;20.86;55.47;100074.09;4484340;32;34081;-72
2022/06/12 03:42:00;;;;;;;3.47;2.58;;;;;;;21.08;54.81;100073.31;4484610;32;34223;-74
2022/06/12 03:44:36;;;;;;;3.78;2.50;;;;;;;20.83;54.96;100069.16;4484381;32;33935;-74
2022/06/12 03:47:14;;;;;;;3.53;2.15;;;;;;;21.31;54.66;100067.78;4483515;32;33423;-71
2022/06/12 03:50:38;;;;;;;2.83;2.30;;;;;;;21.55;53.19;100073.03;4483238;32;34156;-72
2022/06/12 03:53:16;;;;;;;2.45;2.10;;;;;;;21.85;51.34;100071.44;4419656;32;34230;-74
2022/06/12 03:59:08;;;;;;;3.45;2.30;;;;;;;21.56;53.87;100074.69;4467530;31;34377;-75
2022/06/12 04:01:35;;;;;;;2.72;2.12;;;;;;;21.09;56.11;100082.38;4484275;32;33642;-77
2022/06/12 04:04:04;;;;;;;2.65;2.17;;;;;;;21.67;53.04;100075.25;4483885;32;35037;-73
2022/06/12 04:06:32;;;;;;;4.18;2.30;;;;;;;21.93;51.92;100083.69;4482597;32;33718;-78
2022/06/12 04:09:09;;;;;;;3.70;2.40;;;;;;;21.78;52.89;100078.56;4485615;32;33071;-74
2022/06/12 04:11:38;;;;;;;3.15;2.40;;;;;;;22.18;52.53;100079.41;4483511;32;34647;-75
2022/06/12 04:14:11;;;;;;;3.28;2.45;;;;;;;21.61;54.75;100080.06;4485020;32;35111;-76
2022/06/12 04:16:48;;;;;;;3.28;2.45;;;;;;;22.45;51.60;100081.16;4470667;32;34545;-76
2022/06/12 04:19:20;;;;;;;3.62;2.50;;;;;;;22.27;51.25;100082.25;4484894;32;33268;-75
2022/06/12 04:21:59;;;;;;;4.22;2.30;;;;;;;23.17;48.66;100084.56;4484015;32;34690;-75
2022/06/12 04:24:35;;;;;;;2.72;1.80;;;;;;;23.55;46.72;100079.19;4484148;32;34060;-76
2022/06/12 04:27:20;;;;;;;4.15;2.28;;;;;;;23.71;46.85;100086.97;4477832;32;33892;-76
2022/06/12 04:29:49;;;;;;;;;;;;;;;23.92;47.23;100082.38;4477160;32;33161;-75
2022/06/12 04:32:17;;;;;;;2.50;1.98;;;;;;;23.73;46.87;100081.91;4483480;32;35003;-76
2022/06/12 04:34:45;;;;;;;3.95;2.30;;;;;;;24.15;47.13;100085.75;4483954;32;34221;-78
2022/06/12 04:37:18;;;;;;;3.28;1.98;;;;;;;24.35;47.42;100086.97;4484115;32;33989;-76
2022/06/12 04:39:47;;;;;;;3.00;1.90;;;;;;;24.61;44.87;100093.56;4485082;32;33389;-75
2022/06/12 04:42:17;;;;;;;3.25;2.00;;;;;;;24.96;44.25;100092.19;4484538;32;34015;-78
2022/06/12 04:44:45;;;;;;;3.83;2.08;;;;;;;24.85;43.38;100092.94;4484927;32;35201;-77
2022/06/12 04:47:16;;;;;;;3.78;2.45;;;;;;;24.71;43.83;100093.19;4484175;32;33626;-76
2022/06/12 04:49:44;;;;;;;3.08;2.15;;;;;;;24.76;44.72;100096.56;4483741;32;33273;-79
2022/06/12 04:52:12;;;;;;;2.40;2.03;;;;;;;24.48;47.21;100089.84;4484671;32;34462;-79
2022/06/12 04:54:42;;;;;;;3.05;2.15;;;;;;;25.11;44.12;100101.87;4485224;32;34190;-78
2022/06/12 04:57:11;;;;;;;3.12;1.80;;;;;;;24.70;43.49;100097.09;4484051;32;33868;-79
2022/06/12 04:59:39;;;;;;;2.78;1.65;;;;;;;25.42;43.51;100092.38;4483955;32;32968;-78
2022/06/12 05:02:06;;;;;;;2.12;1.70;;;;;;;25.49;43.32;100089.84;4484920;32;34312;-77
2022/06/12 05:04:35;;;;;;;3.05;2.15;;;;;;;25.82;42.46;100091.81;4484427;32;34253;-78
2022/06/12 05:07:04;;;;;;;2.37;1.95;;;;;;;26.29;40.57;100090.66;4483464;32;33959;-75
2022/06/12 05:09:33;;;;;;;3.55;1.92;;;;;;;26.08;41.19;100088.75;4485076;32;33446;-73
2022/06/12 05:12:02;;;;;;;2.12;1.80;;;;;;;26.54;41.91;100092.28;4484389;32;33997;-72
2022/06/12 05:14:29;;;;;;;3.03;1.80;;;;;;;26.28;41.89;100094.59;4483740;32;34004;-82
2022/06/12 05:17:03;;;;;;;3.15;2.00;;;;;;;25.97;40.64;100087.59;4484135;32;34572;-77
2022/06/12 05:19:34;;;;;;;3.70;2.15;;;;;;;26.60;41.07;100092.88;4483405;32;33904;-77
2022/06/12 05:22:03;;;;;;;2.80;2.17;;;;;;;26.88;38.50;100090.19;4484204;32;34006;-73
2022/06/12 05:24:32;;;;;;;2.35;1.95;;;;;;;27.08;40.15;100096.75;4480377;32;35084;-73
2022/06/12 05:26:59;;;;;;;2.40;1.87;;;;;;;27.10;39.32;100096.41;4477759;32;32309;-76
2022/06/12 05:29:30;;;;;;;2.30;1.90;;;;;;;26.97;39.46;100101.19;4483460;32;34126;-75
2022/06/12 05:31:58;;;;;;;2.20;1.67;;;;;;;27.33;38.12;100113.44;4479957;32;34703;-76
2022/06/12 05:34:28;;;;;;;3.28;2.10;;;;;;;27.28;37.52;100114.50;4482254;32;33769;-75
2022/06/12 05:36:56;;;;;;;2.03;1.67;;;;;;;27.08;37.23;100115.44;4482923;32;34007;-74
2022/06/12 05:39:23;;;;;;;24.67;3.33;;;;;;;27.16;37.87;100117.28;4482935;32;34364;-76
2022/06/12 05:41:51;;;;;;;8.00;2.78;;;;;;;27.22;39.41;100117.91;4486256;32;33963;-80
2022/06/12 05:44:19;;;;;;;3.58;2.00;;;;;;;26.34;40.64;100112.66;4485630;32;34237;-76
2022/06/12 05:46:52;;;;;;;4.72;2.10;;;;;;;27.32;36.88;100111.81;4486083;32;32375;-76
2022/06/12 05:49:19;;;;;;;2.65;1.90;;;;;;;27.45;37.32;100115.37;4485964;32;34183;-76
2022/06/12 05:51:47;;;;;;;2.95;2.10;;;;;;;27.37;36.92;100115.16;4484225;32;33106;-75
2022/06/12 05:54:15;;;;;;;2.55;1.77;;;;;;;27.73;35.80;100118.97;4485465;32;34163;-73
2022/06/12 05:56:42;;;;;;;2.17;1.95;;;;;;;27.80;35.25;100123.94;4485297;32;34022;-77
2022/06/12 05:59:10;;;;;;;3.10;1.98;;;;;;;27.34;37.17;100118.66;4486363;32;33233;-76
2022/06/12 06:01:39;;;;;;;2.20;1.95;;;;;;;27.16;37.44;100114.50;4486327;32;33798;-76
2022/06/12 06:04:08;;;;;;;2.53;1.98;;;;;;;26.98;39.40;100122.31;4485787;32;34168;-76
2022/06/12 06:06:57;;;;;;;2.97;1.95;;;;;;;27.38;39.70;100124.31;4486173;32;34666;-75
2022/06/12 06:09:26;;;;;;;4.60;2.00;;;;;;;27.92;36.57;100129.47;4484498;32;33457;-75
2022/06/12 06:11:53;;;;;;;2.85;1.92;;;;;;;28.20;36.87;100134.19;4485954;32;34941;-76
2022/06/12 06:14:21;;;;;;;2.33;1.90;;;;;;;28.22;35.16;100135.44;4486220;32;34260;-74
2022/06/12 06:16:49;;;;;;;3.12;2.00;;;;;;;28.74;34.17;100133.56;4486055;32;34720;-77
2022/06/12 06:19:17;;;;;;;2.60;2.17;;;;;;;27.64;35.18;100128.66;4486008;32;34257;-75
2022/06/12 06:21:45;;;;;;;2.70;1.85;;;;;;;28.05;36.05;100134.97;4485271;32;33901;-75
2022/06/12 06:24:13;;;;;;;2.30;2.08;;;;;;;27.99;37.65;100132.47;4485285;32;33634;-76
2022/06/12 06:26:40;;;;;;;2.75;2.12;;;;;;;28.20;36.89;100131.41;4485711;32;33960;-76
2022/06/12 06:29:08;;;;;;;4.55;2.10;;;;;;;28.76;34.87;100136.81;4486300;32;33381;-76
2022/06/12 06:31:36;;;;;;;3.90;1.87;;;;;;;27.99;36.41;100126.88;4486040;32;34029;-75
2022/06/12 06:34:04;;;;;;;2.97;2.05;;;;;;;28.18;35.85;100126.16;4485001;32;34261;-77
2022/06/12 06:36:32;;;;;;;2.70;2.08;;;;;;;28.08;38.66;100129.50;4485823;32;34475;-75
2022/06/12 06:39:00;;;;;;;5.47;2.37;;;;;;;28.11;37.16;100127.97;4485478;32;33542;-75
2022/06/12 06:41:28;;;;;;;2.15;1.90;;;;;;;28.46;35.58;100132.84;4484492;32;33729;-75
2022/06/12 06:46:43;;;;;;;2.40;2.20;;;;;;;28.23;35.36;100127.91;4470023;32;33966;-79
2022/06/12 06:49:17;;;;;;;3.00;2.05;;;;;;;27.50;35.83;100124.28;4470235;32;33565;-72
2022/06/12 06:51:45;;;;;;;2.40;1.87;;;;;;;27.40;37.71;100131.16;4470117;32;34834;-76
2022/06/12 06:54:13;;;;;;;2.67;2.10;;;;;;;27.19;36.41;100130.50;4474364;32;33823;-73
2022/06/12 06:56:40;;;;;;;2.75;1.92;;;;;;;27.70;35.66;100132.81;4486171;32;33840;-75
2022/06/12 06:59:08;;;;;;;2.37;2.00;;;;;;;27.01;36.79;100125.19;4485857;32;34055;-75
2022/06/12 07:01:35;;;;;;;3.10;2.20;;;;;;;28.16;35.94;100125.72;4485779;32;34865;-77
2022/06/12 07:04:03;;;;;;;2.78;2.00;;;;;;;27.76;35.40;100128.59;4484299;32;34074;-75
2022/06/12 07:06:32;;;;;;;2.55;1.95;;;;;;;27.61;35.95;100119.84;4469936;32;33700;-73
2022/06/12 07:08:59;;;;;;;2.45;2.05;;;;;;;26.86;35.27;100128.69;4469819;32;34320;-75
2022/06/12 07:11:27;;;;;;;3.00;2.03;;;;;;;27.60;35.11;100129.38;4470077;32;34666;-76
2022/06/12 07:13:56;;;;;;;2.65;2.20;;;;;;;28.63;34.98;100130.53;4471741;32;35131;-76
2022/06/12 07:16:25;;;;;;;2.12;1.87;;;;;;;28.33;35.52;100132.94;4485817;32;33995;-77
2022/06/12 07:18:52;;;;;;;2.33;1.80;;;;;;;28.18;34.24;100130.94;4485917;32;33703;-74
2022/06/12 07:21:20;;;;;;;2.92;2.00;;;;;;;28.59;35.41;100131.59;4485215;32;34173;-76
2022/06/12 07:23:48;;;;;;;2.55;2.10;;;;;;;29.45;32.69;100130.78;4485558;32;34998;-76
2022/06/12 07:26:25;;;;;;;2.85;1.92;;;;;;;29.77;33.15;100125.88;4484688;32;33927;-76
2022/06/12 07:28:53;;;;;;;2.30;2.03;;;;;;;30.16;33.41;100125.00;4484154;32;33110;-75
2022/06/12 07:31:22;;;;;;;3.37;2.00;;;;;;;29.50;34.09;100118.50;4485932;32;33913;-76
2022/06/12 07:33:50;;;;;;;3.42;2.12;;;;;;;29.66;33.70;100122.03;4485443;32;34325;-75
2022/06/12 07:36:20;;;;;;;2.40;2.00;;;;;;;30.02;32.25;100120.75;4484258;32;33860;-76
2022/06/12 07:38:49;;;;;;;2.80;2.10;;;;;;;29.48;33.56;100109.66;4484649;32;34155;-77
2022/06/12 07:41:37;;;;;;;3.30;2.15;;;;;;;28.92;34.55;100116.41;4484717;32;34659;-76
2022/06/12 07:44:05;;;;;;;3.05;2.10;;;;;;;29.29;32.93;100116.88;4485428;32;34958;-76
2022/06/12 07:46:33;;;;;;;3.47;1.77;;;;;;;29.38;34.60;100108.28;4484345;32;33659;-77
2022/06/12 07:49:01;;;;;;;2.10;1.90;;;;;;;28.73;36.20;100106.84;4485760;32;33459;-75
2022/06/12 07:51:29;;;;;;;2.37;1.98;;;;;;;28.93;36.23;100112.47;4485467;32;34022;-76
2022/06/12 07:53:56;;;;;;;3.10;2.00;;;;;;;29.30;33.83;100110.12;4485061;32;35106;-76
2022/06/12 07:56:25;;;;;;;2.47;2.03;;;;;;;29.05;35.94;100117.94;4485484;32;33976;-72
2022/06/12 07:58:53;;;;;;;2.90;2.03;;;;;;;29.49;32.85;100119.69;4484292;32;34033;-74
2022/06/12 08:01:23;;;;;;;2.72;1.95;;;;;;;28.62;35.53;100114.16;4484923;32;34063;-73
2022/06/12 08:03:51;;;;;;;3.42;2.20;;;;;;;29.08;35.11;100117.19;4483401;32;34275;-74
2022/06/12 08:06:19;;;;;;;2.67;1.85;;;;;;;29.33;33.08;100119.75;4483931;32;34648;-75
2022/06/12 08:08:46;;;;;;;2.90;2.15;;;;;;;27.85;35.25;100109.75;4484234;32;34170;-74
2022/06/12 08:11:14;;;;;;;3.70;2.45;;;;;;;27.86;36.94;100114.16;4482365;32;34050;-71
2022/06/12 08:13:41;;;;;;;3.65;2.20;;;;;;;28.27;37.88;100114.84;4484635;31;34048;-74
2022/06/12 08:16:10;;;;;;;2.67;1.80;;;;;;;28.51;35.63;100113.06;4484968;31;34376;-71
2022/06/12 08:18:38;;;;;;;2.53;2.30;;;;;;;28.45;37.65;100111.72;4484113;31;33336;-68
2022/06/12 08:21:12;;;;;;;3.62;2.42;;;;;;;28.32;36.35;100111.78;4482995;32;34058;-76
2022/06/12 08:23:47;;;;;;;2.30;2.10;;;;;;;27.94;40.21;100104.81;4477495;31;34010;-71
2022/06/12 08:26:21;;;;;;;2.17;1.87;;;;;;;27.77;37.50;100102.34;4482280;32;33935;-71
2022/06/12 08:28:53;;;;;;;3.92;2.30;;;;;;;28.45;37.64;100101.34;4483239;32;33684;-71
2022/06/12 08:31:24;;;;;;;3.35;1.95;;;;;;;27.56;37.37;100095.00;4482364;32;34516;-73
2022/06/12 08:33:54;;;;;;;2.28;1.77;;;;;;;28.01;38.05;100099.44;4483398;32;35079;-70
2022/06/12 08:36:22;;;;;;;3.17;2.10;;;;;;;28.51;36.25;100093.53;4482812;32;33843;-75
2022/06/12 08:38:49;;;;;;;2.50;2.10;;;;;;;28.65;35.23;100101.44;4483117;32;33570;-70
2022/06/12 08:41:24;;;;;;;2.83;2.22;;;;;;;28.68;36.56;100098.72;4482391;32;33894;-72
2022/06/12 08:44:00;;;;;;;3.75;2.20;;;;;;;28.52;36.01;100104.34;4469716;32;34152;-76
2022/06/12 08:46:35;;;;;;;2.55;2.20;;;;;;;28.80;35.99;100107.00;4483387;32;33844;-72
2022/06/12 08:49:26;;;;;;;2.58;2.25;;;;;;;28.44;35.87;100102.50;4483250;32;34271;-75
2022/06/12 08:52:02;;;;;;;3.20;2.33;;;;;;;26.75;40.62;100099.72;4483671;32;33667;-79
2022/06/12 08:54:36;;;;;;;4.65;2.30;;;;;;;26.91;37.50;100103.41;4481045;32;35006;-75
2022/06/12 08:57:20;;;;;;;3.03;2.05;;;;;;;27.23;38.82;100102.78;4488498;31;33661;-72
2022/06/12 09:00:11;;;;;;;3.30;2.60;;;;;;;27.87;38.32;100104.63;4470947;31;33000;-72
2022/06/12 09:02:41;;;;;;;2.80;2.20;;;;;;;28.49;35.40;100105.06;4489263;31;34849;-75
2022/06/12 09:05:13;;;;;;;3.20;2.47;;;;;;;28.54;35.91;100102.00;4482795;32;34258;-74
2022/06/12 09:08:14;;;;;;;3.30;2.40;;;;;;;28.10;36.53;100106.81;4483594;32;34541;-71
2022/06/12 09:10:52;;;;;;;3.12;2.40;;;;;;;28.22;37.47;100103.94;4483913;32;33456;-73
2022/06/12 09:13:41;;;;;;;5.03;2.35;;;;;;;28.33;39.78;100098.66;4474510;32;34841;-74
2022/06/12 09:16:35;;;;;;;2.37;2.17;;;;;;;28.77;34.77;100096.56;4482994;32;34362;-73
2022/06/12 09:19:21;;;;;;;3.22;2.50;;;;;;;28.29;36.82;100101.34;4480229;32;33936;-71
2022/06/12 09:22:02;;;;;;;3.03;2.10;;;;;;;28.12;37.71;100096.94;4477940;32;33578;-73
2022/06/12 09:24:40;;;;;;;3.60;2.30;;;;;;;27.55;40.31;100096.16;4485225;32;34009;-75
2022/06/12 09:27:16;;;;;;;2.50;2.20;;;;;;;28.06;38.70;100090.00;4469445;32;35098;-71
2022/06/12 09:30:06;;;;;;;3.35;2.30;;;;;;;28.71;36.85;100091.63;4474335;32;33682;-71
2022/06/12 09:32:55;;;;;;;3.10;2.30;;;;;;;28.92;34.32;100097.69;4469208;32;33969;-72
2022/06/12 09:36:04;;;;;;;2.75;2.40;;;;;;;28.54;35.98;100090.81;4480552;32;33680;-74
2022/06/12 09:39:02;;;;;;;3.00;2.35;;;;;;;27.67;39.63;100086.94;4421903;32;34355;-73
2022/06/12 09:41:41;;;;;;;3.08;2.20;;;;;;;27.90;38.14;100084.37;4421881;32;33673;-74
2022/06/12 09:44:13;;;;;;;3.53;2.20;;;;;;;28.28;37.63;100090.56;4472778;31;33335;-70
2022/06/12 09:46:48;;;;;;;2.72;2.15;;;;;;;28.05;37.40;100082.78;4480258;32;33998;-71
2022/06/12 09:49:21;;;;;;;3.17;2.47;;;;;;;28.32;37.66;100083.09;4470402;32;33776;-70
2022/06/12 09:51:51;;;;;;;2.72;2.17;;;;;;;28.68;35.62;100070.78;4470496;32;33595;-73
2022/06/12 09:54:58;;;;;;;2.87;2.10;;;;;;;28.67;37.94;100072.00;4470581;32;34043;-77
2022/06/12 09:57:51;;;;;;;3.22;2.40;;;;;;;28.23;35.66;100072.09;4440629;32;34845;-72
2022/06/12 10:00:37;;;;;;;2.20;2.00;;;;;;;27.61;36.02;100068.84;4457477;32;33655;-71
2022/06/12 10:03:13;;;;;;;2.95;2.30;;;;;;;28.13;35.20;100062.28;4485411;32;34042;-76
2022/06/12 10:06:04;;;;;;;3.28;2.53;;;;;;;28.09;35.42;100060.56;4486043;32;33538;-76
2022/06/12 10:08:38;;;;;;;4.60;2.80;;;;;;;27.06;37.42;100059.28;4484867;32;33827;-74
2022/06/12 10:11:29;;;;;;;3.15;2.40;;;;;;;27.24;38.14;100057.06;4480099;32;34304;-74
2022/06/12 10:14:02;;;;;;;3.55;2.67;;;;;;;27.48;39.18;100058.94;4470077;32;33927;-72
2022/06/12 10:17:13;;;;;;;3.78;2.75;;;;;;;27.98;37.86;100055.53;4470499;32;34191;-75
2022/06/12 10:19:48;;;;;;;3.30;2.15;;;;;;;28.16;38.67;100058.75;4463806;32;33968;-71
2022/06/12 10:22:17;;;;;;;2.97;2.37;;;;;;;28.23;35.75;100049.78;4471131;32;35195;-72
2022/06/12 10:24:54;;;;;;;3.58;2.67;;;;;;;28.69;37.78;100047.31;4476185;32;33840;-73
2022/06/12 10:27:22;;;;;;;3.40;2.50;;;;;;;27.72;37.04;100041.28;4485666;32;33520;-71
2022/06/12 10:30:00;;;;;;;4.60;2.53;;;;;;;28.19;37.14;100038.53;4485665;32;34637;-72
2022/06/12 10:32:40;;;;;;;3.00;2.25;;;;;;;27.49;37.62;100035.47;4484479;32;35051;-73
2022/06/12 10:35:20;;;;;;;4.18;2.60;;;;;;;28.39;37.79;100036.59;4478321;32;34745;-75
2022/06/12 10:37:48;;;;;;;3.35;2.40;;;;;;;28.09;36.25;100035.47;4485626;32;33392;-71
2022/06/12 10:40:21;;;;;;;6.70;3.30;;;;;;;28.28;38.71;100037.53;4484929;32;34103;-76
2022/06/12 10:42:56;;;;;;;4.20;2.58;;;;;;;27.78;37.72;100031.47;4485222;32;34986;-70
2022/06/12 10:45:26;;;;;;;3.67;2.42;;;;;;;27.89;39.26;100032.59;4484347;32;34750;-72
2022/06/12 10:48:00;;;;;;;2.85;2.20;;;;;;;28.63;38.59;100032.00;4484105;32;33483;-71
2022/06/12 10:50:31;;;;;;;6.03;2.50;;;;;;;28.34;36.86;100034.09;4483950;32;34168;-70
2022/06/12 10:53:05;;;;;;;3.53;2.40;;;;;;;28.75;36.40;100031.88;4484874;32;34372;-74
2022/06/12 10:55:54;;;;;;;3.70;2.53;;;;;;;29.31;35.46;100033.50;4484966;32;33994;-71
2022/06/12 10:58:30;;;;;;;2.85;2.25;;;;;;;28.95;36.78;100035.50;4484481;32;33246;-71
2022/06/12 11:01:03;;;;;;;3.15;2.45;;;;;;;28.74;35.55;100026.66;4485994;32;33928;-71
2022/06/12 11:03:59;;;;;;;4.10;2.37;;;;;;;29.32;34.75;100023.91;4484532;32;35096;-76
2022/06/12 11:06:40;;;;;;;2.70;2.30;;;;;;;29.76;34.67;100028.34;4479982;32;33765;-72
2022/06/12 11:09:19;;;;;;;3.05;2.28;;;;;;;29.14;36.20;100023.56;4484868;32;33008;-70
2022/06/12 11:11:50;;;;;;;2.83;2.17;;;;;;;29.00;35.26;100023.22;4484375;32;34045;-70
2022/06/12 11:14:41;;;;;;;2.70;2.10;;;;;;;28.91;36.94;100019.84;4485170;32;34175;-76
2022/06/12 11:17:37;;;;;;;2.97;2.35;;;;;;;29.09;35.25;100021.03;4484432;32;33640;-71
2022/06/12 11:20:32;;;;;;;2.70;2.28;;;;;;;29.08;36.04;100013.03;4484248;32;33416;-74
2022/06/12 11:23:19;;;;;;;5.25;2.47;;;;;;;29.17;36.02;100022.81;4482688;32;34001;-76
2022/06/12 11:26:30;;;;;;;4.00;2.37;;;;;;;28.64;36.83;100022.47;4485584;32;34078;-72
2022/06/12 11:29:20;;;;;;;2.87;2.05;;;;;;;28.86;36.55;100020.16;4484315;32;34581;-73
2022/06/12 11:32:06;;;;;;;4.70;2.77;;;;;;;29.31;34.14;100010.31;4483816;32;34159;-75
2022/06/12 11:34:42;;;;;;;4.57;2.37;;;;;;;29.23;36.18;100009.38;4484073;32;34703;-74
2022/06/12 11:37:38;;;;;;;4.12;2.10;;;;;;;29.43;37.01;100015.75;4484676;32;33904;-70
2022/06/12 11:40:46;;;;;;;2.15;1.95;;;;;;;29.59;35.58;100021.22;4482702;32;33698;-74
2022/06/12 11:43:23;;;;;;;2.58;2.10;;;;;;;29.59;34.35;100010.03;4473699;32;33267;-73
2022/06/12 11:45:57;;;;;;;2.58;2.12;;;;;;;30.13;32.62;100003.44;4483721;32;34440;-74
2022/06/12 11:48:45;;;;;;;3.22;2.35;;;;;;;29.86;33.81;99996.97;4483567;32;34154;-72
2022/06/12 11:51:24;;;;;;;3.92;2.60;;;;;;;30.08;32.70;99992.53;4484597;32;33622;-72
2022/06/12 11:54:09;;;;;;;2.45;2.25;;;;;;;28.91;37.27;100008.69;4485428;32;33540;-70
2022/06/12 11:56:45;;;;;;;2.83;2.25;;;;;;;29.36;36.18;100004.44;4485517;32;33948;-74
2022/06/12 11:59:37;;;;;;;2.33;2.12;;;;;;;29.85;34.95;99998.16;4485189;32;34956;-75
2022/06/12 12:02:19;;;;;;;2.97;2.65;;;;;;;28.89;33.96;100005.44;4485050;32;34534;-72
2022/06/12 12:05:12;;;;;;;3.72;2.65;;;;;;;29.65;33.73;99989.81;4484250;32;33198;-73
2022/06/12 12:08:03;;;;;;;2.50;2.30;;;;;;;29.77;33.91;99991.63;4484739;32;34540;-75
2022/06/12 12:10:50;;;;;;;2.62;2.17;;;;;;;30.27;34.83;99991.63;4484621;32;34304;-71
2022/06/12 12:13:20;;;;;;;3.25;2.60;;;;;;;28.83;35.22;99988.16;4484361;32;34568;-76
2022/06/12 12:15:51;;;;;;;4.28;2.40;;;;;;;29.15;37.14;99985.25;4480833;32;33385;-75
2022/06/12 12:18:33;;;;;;;2.53;2.33;;;;;;;29.12;36.95;99974.84;4476698;32;33953;-72